sensor_id;sensor_type;location;lat;lon;timestamp;temperature;humidity
24468;DHT22;12634;50.852;5.676;2023-12-28T00:02:20;10.60;99.90
24468;DHT22;12634;50.852;5.676;2023-12-28T00:04:47;10.50;99.90
24468;DHT22;12634;50.852;5.676;2023-12-28T00:07:14;10.50;99.90
24468;DHT22;12634;50.852;5.676;2023-12-28T00:09:43;10.50;99.90
24468;DHT22;12634;50.852;5.676;2023-12-28T00:12:10;10.50;99.90
24468;DHT22;12634;50.852;5.676;2023-12-28T00:14:37;10.50;99.90
24468;DHT22;12634;50.852;5.676;2023-12-28T00:17:04;10.50;99.90
24468;DHT22;12634;50.852;5.676;2023-12-28T00:19:32;10.50;99.90
24468;DHT22;12634;50.852;5.676;2023-12-28T00:21:59;10.40;99.90
24468;DHT22;12634;50.852;5.676;2023-12-28T00:24:26;10.40;99.90
24468;DHT22;12634;50.852;5.676;2023-12-28T00:26:54;10.50;99.90
24468;DHT22;12634;50.852;5.676;2023-12-28T00:29:21;10.50;99.90
24468;DHT22;12634;50.852;5.676;2023-12-28T00:31:48;10.40;99.90
24468;DHT22;12634;50.852;5.676;2023-12-28T00:34:15;10.40;99.90
24468;DHT22;12634;50.852;5.676;2023-12-28T00:36:42;10.40;99.90
24468;DHT22;12634;50.852;5.676;2023-12-28T00:39:10;10.40;99.90
24468;DHT22;12634;50.852;5.676;2023-12-28T00:41:37;10.40;99.90
24468;DHT22;12634;50.852;5.676;2023-12-28T00:44:05;10.40;99.90
24468;DHT22;12634;50.852;5.676;2023-12-28T00:46:35;10.40;99.90
24468;DHT22;12634;50.852;5.676;2023-12-28T00:49:02;10.40;99.90
24468;DHT22;12634;50.852;5.676;2023-12-28T00:51:29;10.40;99.90
24468;DHT22;12634;50.852;5.676;2023-12-28T00:53:56;10.40;99.90
24468;DHT22;12634;50.852;5.676;2023-12-28T00:56:23;10.40;99.90
24468;DHT22;12634;50.852;5.676;2023-12-28T00:58:50;10.40;99.90
24468;DHT22;12634;50.852;5.676;2023-12-28T01:01:19;10.40;99.90
24468;DHT22;12634;50.852;5.676;2023-12-28T01:03:46;10.30;99.90
24468;DHT22;12634;50.852;5.676;2023-12-28T01:06:13;10.40;99.90
24468;DHT22;12634;50.852;5.676;2023-12-28T01:08:40;10.30;99.90
24468;DHT22;12634;50.852;5.676;2023-12-28T01:11:07;10.40;99.90
24468;DHT22;12634;50.852;5.676;2023-12-28T01:13:35;10.30;99.90
24468;DHT22;12634;50.852;5.676;2023-12-28T01:16:02;10.30;99.90
24468;DHT22;12634;50.852;5.676;2023-12-28T01:18:31;10.20;99.90
24468;DHT22;12634;50.852;5.676;2023-12-28T01:20:58;10.30;99.90
24468;DHT22;12634;50.852;5.676;2023-12-28T01:23:25;10.20;99.90
24468;DHT22;12634;50.852;5.676;2023-12-28T01:25:52;10.20;99.90
24468;DHT22;12634;50.852;5.676;2023-12-28T01:28:21;10.20;99.90
24468;DHT22;12634;50.852;5.676;2023-12-28T01:30:49;10.10;99.90
24468;DHT22;12634;50.852;5.676;2023-12-28T01:33:16;10.10;99.90
24468;DHT22;12634;50.852;5.676;2023-12-28T01:35:44;10.00;99.90
24468;DHT22;12634;50.852;5.676;2023-12-28T01:38:11;10.00;99.90
24468;DHT22;12634;50.852;5.676;2023-12-28T01:40:44;10.10;99.90
24468;DHT22;12634;50.852;5.676;2023-12-28T01:43:11;10.00;99.90
24468;DHT22;12634;50.852;5.676;2023-12-28T01:45:38;10.00;99.90
24468;DHT22;12634;50.852;5.676;2023-12-28T01:48:06;10.00;99.90
24468;DHT22;12634;50.852;5.676;2023-12-28T01:50:33;10.00;99.90
24468;DHT22;12634;50.852;5.676;2023-12-28T01:53:02;9.90;99.90
24468;DHT22;12634;50.852;5.676;2023-12-28T01:55:30;9.90;99.90
24468;DHT22;12634;50.852;5.676;2023-12-28T01:57:59;9.90;99.90
24468;DHT22;12634;50.852;5.676;2023-12-28T02:00:26;10.00;99.90
24468;DHT22;12634;50.852;5.676;2023-12-28T02:02:53;10.00;99.90
24468;DHT22;12634;50.852;5.676;2023-12-28T02:05:21;10.00;99.90
24468;DHT22;12634;50.852;5.676;2023-12-28T02:07:48;10.10;99.90
24468;DHT22;12634;50.852;5.676;2023-12-28T02:10:17;9.90;99.90
24468;DHT22;12634;50.852;5.676;2023-12-28T02:12:44;10.00;99.90
24468;DHT22;12634;50.852;5.676;2023-12-28T02:15:12;10.00;99.90
24468;DHT22;12634;50.852;5.676;2023-12-28T02:17:46;10.00;99.90
24468;DHT22;12634;50.852;5.676;2023-12-28T02:20:15;10.00;99.90
24468;DHT22;12634;50.852;5.676;2023-12-28T02:22:43;10.00;99.90
24468;DHT22;12634;50.852;5.676;2023-12-28T02:25:12;9.90;99.90
24468;DHT22;12634;50.852;5.676;2023-12-28T02:27:41;10.00;99.90
24468;DHT22;12634;50.852;5.676;2023-12-28T02:30:09;10.00;99.90
24468;DHT22;12634;50.852;5.676;2023-12-28T02:32:45;10.10;99.90
24468;DHT22;12634;50.852;5.676;2023-12-28T02:35:19;10.20;99.90
24468;DHT22;12634;50.852;5.676;2023-12-28T02:37:50;10.10;99.90
24468;DHT22;12634;50.852;5.676;2023-12-28T02:40:21;10.00;99.90
24468;DHT22;12634;50.852;5.676;2023-12-28T02:42:49;10.00;99.90
24468;DHT22;12634;50.852;5.676;2023-12-28T02:45:18;10.00;99.90
24468;DHT22;12634;50.852;5.676;2023-12-28T02:47:45;10.00;99.90
24468;DHT22;12634;50.852;5.676;2023-12-28T02:50:12;10.10;99.90
24468;DHT22;12634;50.852;5.676;2023-12-28T02:52:40;10.10;99.90
24468;DHT22;12634;50.852;5.676;2023-12-28T02:55:07;10.10;99.90
24468;DHT22;12634;50.852;5.676;2023-12-28T02:57:37;10.10;99.90
24468;DHT22;12634;50.852;5.676;2023-12-28T03:00:05;10.00;99.90
24468;DHT22;12634;50.852;5.676;2023-12-28T03:02:35;10.00;99.90
24468;DHT22;12634;50.852;5.676;2023-12-28T03:05:04;10.10;99.90
24468;DHT22;12634;50.852;5.676;2023-12-28T03:07:31;10.00;99.90
24468;DHT22;12634;50.852;5.676;2023-12-28T03:09:58;10.10;99.90
24468;DHT22;12634;50.852;5.676;2023-12-28T03:12:26;10.10;99.90
24468;DHT22;12634;50.852;5.676;2023-12-28T03:14:55;10.00;99.90
24468;DHT22;12634;50.852;5.676;2023-12-28T03:17:22;10.00;99.90
24468;DHT22;12634;50.852;5.676;2023-12-28T03:19:49;10.00;99.90
24468;DHT22;12634;50.852;5.676;2023-12-28T03:22:16;10.10;99.90
24468;DHT22;12634;50.852;5.676;2023-12-28T03:24:44;10.10;99.90
24468;DHT22;12634;50.852;5.676;2023-12-28T03:27:11;10.00;99.90
24468;DHT22;12634;50.852;5.676;2023-12-28T03:29:39;10.00;99.90
24468;DHT22;12634;50.852;5.676;2023-12-28T03:32:09;10.00;99.90
24468;DHT22;12634;50.852;5.676;2023-12-28T03:34:36;10.00;99.90
24468;DHT22;12634;50.852;5.676;2023-12-28T03:37:03;9.90;99.90
24468;DHT22;12634;50.852;5.676;2023-12-28T03:39:31;10.00;99.90
24468;DHT22;12634;50.852;5.676;2023-12-28T03:41:59;10.00;99.90
24468;DHT22;12634;50.852;5.676;2023-12-28T03:44:26;10.20;99.90
24468;DHT22;12634;50.852;5.676;2023-12-28T03:46:53;10.10;99.90
24468;DHT22;12634;50.852;5.676;2023-12-28T03:49:22;10.10;99.90
24468;DHT22;12634;50.852;5.676;2023-12-28T03:51:50;10.10;99.90
24468;DHT22;12634;50.852;5.676;2023-12-28T03:54:19;10.10;99.90
24468;DHT22;12634;50.852;5.676;2023-12-28T03:56:46;10.10;99.90
24468;DHT22;12634;50.852;5.676;2023-12-28T03:59:14;10.10;99.90
24468;DHT22;12634;50.852;5.676;2023-12-28T04:01:42;10.10;99.90
24468;DHT22;12634;50.852;5.676;2023-12-28T04:04:09;10.00;99.90
24468;DHT22;12634;50.852;5.676;2023-12-28T04:06:38;9.90;99.90
24468;DHT22;12634;50.852;5.676;2023-12-28T04:09:07;10.10;99.90
24468;DHT22;12634;50.852;5.676;2023-12-28T04:11:34;10.00;99.90
24468;DHT22;12634;50.852;5.676;2023-12-28T04:14:01;10.00;99.90
24468;DHT22;12634;50.852;5.676;2023-12-28T04:16:28;10.00;99.90
24468;DHT22;12634;50.852;5.676;2023-12-28T04:18:55;9.80;99.90
24468;DHT22;12634;50.852;5.676;2023-12-28T04:21:23;9.90;99.90
24468;DHT22;12634;50.852;5.676;2023-12-28T04:23:51;9.90;99.90
24468;DHT22;12634;50.852;5.676;2023-12-28T04:26:18;9.90;99.90
24468;DHT22;12634;50.852;5.676;2023-12-28T04:28:46;10.00;99.90
24468;DHT22;12634;50.852;5.676;2023-12-28T04:31:13;9.90;99.90
24468;DHT22;12634;50.852;5.676;2023-12-28T04:33:40;9.80;99.90
24468;DHT22;12634;50.852;5.676;2023-12-28T04:36:08;10.00;99.90
24468;DHT22;12634;50.852;5.676;2023-12-28T04:38:35;10.00;99.90
24468;DHT22;12634;50.852;5.676;2023-12-28T04:41:03;10.00;99.90
24468;DHT22;12634;50.852;5.676;2023-12-28T04:43:30;10.10;99.90
24468;DHT22;12634;50.852;5.676;2023-12-28T04:46:01;10.00;99.90
24468;DHT22;12634;50.852;5.676;2023-12-28T04:48:29;10.10;99.90
24468;DHT22;12634;50.852;5.676;2023-12-28T04:50:56;10.20;99.90
24468;DHT22;12634;50.852;5.676;2023-12-28T04:53:23;10.10;99.90
24468;DHT22;12634;50.852;5.676;2023-12-28T04:55:50;10.00;99.90
24468;DHT22;12634;50.852;5.676;2023-12-28T04:58:18;10.00;99.90
24468;DHT22;12634;50.852;5.676;2023-12-28T05:00:46;10.10;99.90
24468;DHT22;12634;50.852;5.676;2023-12-28T05:03:13;10.10;99.90
24468;DHT22;12634;50.852;5.676;2023-12-28T05:05:40;10.20;99.90
24468;DHT22;12634;50.852;5.676;2023-12-28T05:08:07;10.30;99.90
24468;DHT22;12634;50.852;5.676;2023-12-28T05:10:34;10.30;99.90
24468;DHT22;12634;50.852;5.676;2023-12-28T05:13:01;10.30;99.90
24468;DHT22;12634;50.852;5.676;2023-12-28T05:15:30;10.30;99.90
24468;DHT22;12634;50.852;5.676;2023-12-28T05:17:57;10.30;99.90
24468;DHT22;12634;50.852;5.676;2023-12-28T05:20:24;10.40;99.90
24468;DHT22;12634;50.852;5.676;2023-12-28T05:22:51;10.30;99.90
24468;DHT22;12634;50.852;5.676;2023-12-28T05:25:18;10.30;99.90
24468;DHT22;12634;50.852;5.676;2023-12-28T05:27:45;10.20;99.90
24468;DHT22;12634;50.852;5.676;2023-12-28T05:30:13;10.30;99.90
24468;DHT22;12634;50.852;5.676;2023-12-28T05:32:41;10.30;99.90
24468;DHT22;12634;50.852;5.676;2023-12-28T05:35:08;10.30;99.90
24468;DHT22;12634;50.852;5.676;2023-12-28T05:37:35;10.30;99.90
24468;DHT22;12634;50.852;5.676;2023-12-28T05:40:03;10.30;99.90
24468;DHT22;12634;50.852;5.676;2023-12-28T05:42:30;10.30;99.90
24468;DHT22;12634;50.852;5.676;2023-12-28T05:44:57;10.20;99.90
24468;DHT22;12634;50.852;5.676;2023-12-28T05:47:24;10.20;99.90
24468;DHT22;12634;50.852;5.676;2023-12-28T05:49:52;10.10;99.90
24468;DHT22;12634;50.852;5.676;2023-12-28T05:52:20;10.20;99.90
24468;DHT22;12634;50.852;5.676;2023-12-28T05:54:47;10.10;99.90
24468;DHT22;12634;50.852;5.676;2023-12-28T05:57:14;10.10;99.90
24468;DHT22;12634;50.852;5.676;2023-12-28T05:59:41;10.00;99.90
24468;DHT22;12634;50.852;5.676;2023-12-28T06:02:08;10.00;99.90
24468;DHT22;12634;50.852;5.676;2023-12-28T06:04:36;9.80;99.90
24468;DHT22;12634;50.852;5.676;2023-12-28T06:07:05;10.00;99.90
24468;DHT22;12634;50.852;5.676;2023-12-28T06:09:32;9.90;99.90
24468;DHT22;12634;50.852;5.676;2023-12-28T06:11:58;10.00;99.90
24468;DHT22;12634;50.852;5.676;2023-12-28T06:14:25;9.90;99.90
24468;DHT22;12634;50.852;5.676;2023-12-28T06:16:52;9.90;99.90
24468;DHT22;12634;50.852;5.676;2023-12-28T06:19:19;9.90;99.90
24468;DHT22;12634;50.852;5.676;2023-12-28T06:21:47;10.00;99.90
24468;DHT22;12634;50.852;5.676;2023-12-28T06:24:15;9.80;99.90
24468;DHT22;12634;50.852;5.676;2023-12-28T06:26:43;9.80;99.90
24468;DHT22;12634;50.852;5.676;2023-12-28T06:29:11;9.90;99.90
24468;DHT22;12634;50.852;5.676;2023-12-28T06:31:38;10.00;99.90
24468;DHT22;12634;50.852;5.676;2023-12-28T06:34:05;10.00;99.90
24468;DHT22;12634;50.852;5.676;2023-12-28T06:36:33;9.80;99.90
24468;DHT22;12634;50.852;5.676;2023-12-28T06:39:00;9.90;99.90
24468;DHT22;12634;50.852;5.676;2023-12-28T06:41:29;9.80;99.90
24468;DHT22;12634;50.852;5.676;2023-12-28T06:43:56;9.80;99.90
24468;DHT22;12634;50.852;5.676;2023-12-28T06:46:23;9.80;99.90
24468;DHT22;12634;50.852;5.676;2023-12-28T06:48:50;9.90;99.90
24468;DHT22;12634;50.852;5.676;2023-12-28T06:51:17;9.80;99.90
24468;DHT22;12634;50.852;5.676;2023-12-28T06:53:45;10.00;99.90
24468;DHT22;12634;50.852;5.676;2023-12-28T06:56:12;9.90;99.90
24468;DHT22;12634;50.852;5.676;2023-12-28T06:58:41;9.90;99.90
24468;DHT22;12634;50.852;5.676;2023-12-28T07:01:08;10.00;99.90
24468;DHT22;12634;50.852;5.676;2023-12-28T07:03:36;10.00;99.90
24468;DHT22;12634;50.852;5.676;2023-12-28T07:06:04;10.10;99.90
24468;DHT22;12634;50.852;5.676;2023-12-28T07:08:31;10.10;99.90
24468;DHT22;12634;50.852;5.676;2023-12-28T07:10:58;10.10;99.90
24468;DHT22;12634;50.852;5.676;2023-12-28T07:13:25;10.20;99.90
24468;DHT22;12634;50.852;5.676;2023-12-28T07:15:54;10.40;99.90
24468;DHT22;12634;50.852;5.676;2023-12-28T07:18:21;10.30;99.90
24468;DHT22;12634;50.852;5.676;2023-12-28T07:20:48;10.40;99.90
24468;DHT22;12634;50.852;5.676;2023-12-28T07:23:16;10.40;99.90
24468;DHT22;12634;50.852;5.676;2023-12-28T07:25:43;10.40;99.90
24468;DHT22;12634;50.852;5.676;2023-12-28T07:28:10;10.40;99.90
24468;DHT22;12634;50.852;5.676;2023-12-28T07:30:37;10.40;99.90
24468;DHT22;12634;50.852;5.676;2023-12-28T07:33:06;10.50;99.90
24468;DHT22;12634;50.852;5.676;2023-12-28T07:35:33;10.40;99.90
24468;DHT22;12634;50.852;5.676;2023-12-28T07:38:00;10.40;99.90
24468;DHT22;12634;50.852;5.676;2023-12-28T07:40:28;10.40;99.90
24468;DHT22;12634;50.852;5.676;2023-12-28T07:42:55;10.40;99.90
24468;DHT22;12634;50.852;5.676;2023-12-28T07:45:22;10.50;99.90
24468;DHT22;12634;50.852;5.676;2023-12-28T07:47:50;10.40;99.90
24468;DHT22;12634;50.852;5.676;2023-12-28T07:50:19;10.40;99.90
24468;DHT22;12634;50.852;5.676;2023-12-28T07:52:47;10.40;99.90
24468;DHT22;12634;50.852;5.676;2023-12-28T07:55:14;10.40;99.90
24468;DHT22;12634;50.852;5.676;2023-12-28T07:57:41;10.40;99.90
24468;DHT22;12634;50.852;5.676;2023-12-28T08:00:09;10.40;99.90
24468;DHT22;12634;50.852;5.676;2023-12-28T08:02:37;10.50;99.90
24468;DHT22;12634;50.852;5.676;2023-12-28T08:05:03;10.50;99.90
24468;DHT22;12634;50.852;5.676;2023-12-28T08:07:32;10.40;99.90
24468;DHT22;12634;50.852;5.676;2023-12-28T08:09:59;10.40;99.90
24468;DHT22;12634;50.852;5.676;2023-12-28T08:12:26;10.30;99.90
24468;DHT22;12634;50.852;5.676;2023-12-28T08:14:54;10.20;99.90
24468;DHT22;12634;50.852;5.676;2023-12-28T08:17:22;10.10;99.90
24468;DHT22;12634;50.852;5.676;2023-12-28T08:19:49;10.30;99.90
24468;DHT22;12634;50.852;5.676;2023-12-28T08:22:16;10.20;99.90
24468;DHT22;12634;50.852;5.676;2023-12-28T08:24:46;10.20;99.90
24468;DHT22;12634;50.852;5.676;2023-12-28T08:27:13;10.20;99.90
24468;DHT22;12634;50.852;5.676;2023-12-28T08:29:40;10.20;99.90
24468;DHT22;12634;50.852;5.676;2023-12-28T08:32:08;10.30;99.90
24468;DHT22;12634;50.852;5.676;2023-12-28T08:34:36;10.30;99.90
24468;DHT22;12634;50.852;5.676;2023-12-28T08:37:03;10.40;99.90
24468;DHT22;12634;50.852;5.676;2023-12-28T08:39:31;10.30;99.90
24468;DHT22;12634;50.852;5.676;2023-12-28T08:41:59;10.30;99.90
24468;DHT22;12634;50.852;5.676;2023-12-28T08:44:27;10.40;99.90
24468;DHT22;12634;50.852;5.676;2023-12-28T08:46:54;10.40;99.90
24468;DHT22;12634;50.852;5.676;2023-12-28T08:49:21;10.30;99.90
24468;DHT22;12634;50.852;5.676;2023-12-28T08:51:49;10.30;99.90
24468;DHT22;12634;50.852;5.676;2023-12-28T08:54:16;10.40;99.90
24468;DHT22;12634;50.852;5.676;2023-12-28T08:56:43;10.40;99.90
24468;DHT22;12634;50.852;5.676;2023-12-28T08:59:12;10.40;99.90
24468;DHT22;12634;50.852;5.676;2023-12-28T09:01:39;10.40;99.90
24468;DHT22;12634;50.852;5.676;2023-12-28T09:04:06;10.50;99.90
24468;DHT22;12634;50.852;5.676;2023-12-28T09:06:33;10.70;99.90
24468;DHT22;12634;50.852;5.676;2023-12-28T09:09:01;10.80;99.90
24468;DHT22;12634;50.852;5.676;2023-12-28T09:11:29;11.10;99.90
24468;DHT22;12634;50.852;5.676;2023-12-28T09:13:56;11.20;99.90
24468;DHT22;12634;50.852;5.676;2023-12-28T09:16:25;11.30;99.90
24468;DHT22;12634;50.852;5.676;2023-12-28T09:18:54;11.40;99.90
24468;DHT22;12634;50.852;5.676;2023-12-28T09:21:22;11.50;99.90
24468;DHT22;12634;50.852;5.676;2023-12-28T09:23:51;11.50;99.90
24468;DHT22;12634;50.852;5.676;2023-12-28T09:26:18;11.40;99.90
24468;DHT22;12634;50.852;5.676;2023-12-28T09:28:45;11.60;99.90
24468;DHT22;12634;50.852;5.676;2023-12-28T09:31:12;11.70;99.90
24468;DHT22;12634;50.852;5.676;2023-12-28T09:33:41;11.60;99.90
24468;DHT22;12634;50.852;5.676;2023-12-28T09:36:09;11.70;99.90
24468;DHT22;12634;50.852;5.676;2023-12-28T09:38:38;11.60;99.90
24468;DHT22;12634;50.852;5.676;2023-12-28T09:41:11;11.60;99.90
24468;DHT22;12634;50.852;5.676;2023-12-28T09:43:45;11.60;99.90
24468;DHT22;12634;50.852;5.676;2023-12-28T09:46:17;11.60;99.90
24468;DHT22;12634;50.852;5.676;2023-12-28T09:48:45;11.60;99.90
24468;DHT22;12634;50.852;5.676;2023-12-28T09:51:12;11.70;99.90
24468;DHT22;12634;50.852;5.676;2023-12-28T09:53:40;11.70;99.90
24468;DHT22;12634;50.852;5.676;2023-12-28T09:56:07;11.70;99.90
24468;DHT22;12634;50.852;5.676;2023-12-28T09:58:35;11.70;99.90
24468;DHT22;12634;50.852;5.676;2023-12-28T10:01:03;11.70;99.90
24468;DHT22;12634;50.852;5.676;2023-12-28T10:03:32;11.70;99.90
24468;DHT22;12634;50.852;5.676;2023-12-28T10:06:00;11.70;99.90
24468;DHT22;12634;50.852;5.676;2023-12-28T10:08:28;11.90;99.90
24468;DHT22;12634;50.852;5.676;2023-12-28T10:10:55;12.00;99.90
24468;DHT22;12634;50.852;5.676;2023-12-28T10:13:25;12.00;99.90
24468;DHT22;12634;50.852;5.676;2023-12-28T10:15:52;12.00;99.90
24468;DHT22;12634;50.852;5.676;2023-12-28T10:18:19;12.10;99.90
24468;DHT22;12634;50.852;5.676;2023-12-28T10:20:50;12.00;99.90
24468;DHT22;12634;50.852;5.676;2023-12-28T10:23:19;12.00;99.90
24468;DHT22;12634;50.852;5.676;2023-12-28T10:25:47;11.90;99.90
24468;DHT22;12634;50.852;5.676;2023-12-28T10:28:16;11.80;99.90
24468;DHT22;12634;50.852;5.676;2023-12-28T10:30:45;11.80;99.90
24468;DHT22;12634;50.852;5.676;2023-12-28T10:33:13;11.70;99.90
24468;DHT22;12634;50.852;5.676;2023-12-28T10:35:42;11.80;99.90
24468;DHT22;12634;50.852;5.676;2023-12-28T10:38:12;11.90;99.90
24468;DHT22;12634;50.852;5.676;2023-12-28T10:40:42;11.90;99.90
24468;DHT22;12634;50.852;5.676;2023-12-28T10:43:14;11.90;99.90
24468;DHT22;12634;50.852;5.676;2023-12-28T10:45:42;12.00;99.90
24468;DHT22;12634;50.852;5.676;2023-12-28T10:48:13;12.00;99.90
24468;DHT22;12634;50.852;5.676;2023-12-28T10:50:42;12.00;99.90
24468;DHT22;12634;50.852;5.676;2023-12-28T10:53:24;11.90;99.90
24468;DHT22;12634;50.852;5.676;2023-12-28T10:56:06;12.00;99.90
24468;DHT22;12634;50.852;5.676;2023-12-28T10:58:48;12.20;99.90
24468;DHT22;12634;50.852;5.676;2023-12-28T11:01:21;12.40;99.90
24468;DHT22;12634;50.852;5.676;2023-12-28T11:03:56;12.30;99.90
24468;DHT22;12634;50.852;5.676;2023-12-28T11:06:26;12.30;99.90
24468;DHT22;12634;50.852;5.676;2023-12-28T11:08:55;12.40;99.90
24468;DHT22;12634;50.852;5.676;2023-12-28T11:11:25;12.30;99.90
24468;DHT22;12634;50.852;5.676;2023-12-28T11:13:55;12.40;99.90
24468;DHT22;12634;50.852;5.676;2023-12-28T11:16:22;12.50;99.90
24468;DHT22;12634;50.852;5.676;2023-12-28T11:18:51;12.60;99.90
24468;DHT22;12634;50.852;5.676;2023-12-28T11:21:20;12.60;99.90
24468;DHT22;12634;50.852;5.676;2023-12-28T11:23:49;12.50;99.90
24468;DHT22;12634;50.852;5.676;2023-12-28T11:26:16;12.30;99.90
24468;DHT22;12634;50.852;5.676;2023-12-28T11:28:45;12.40;99.90
24468;DHT22;12634;50.852;5.676;2023-12-28T11:31:14;12.30;99.90
24468;DHT22;12634;50.852;5.676;2023-12-28T11:33:45;12.40;99.90
24468;DHT22;12634;50.852;5.676;2023-12-28T11:36:20;12.40;99.90
24468;DHT22;12634;50.852;5.676;2023-12-28T11:38:50;12.30;99.90
24468;DHT22;12634;50.852;5.676;2023-12-28T11:41:20;12.30;99.90
24468;DHT22;12634;50.852;5.676;2023-12-28T11:43:53;12.20;99.90
24468;DHT22;12634;50.852;5.676;2023-12-28T11:46:21;12.20;99.90
24468;DHT22;12634;50.852;5.676;2023-12-28T11:48:48;12.20;99.90
24468;DHT22;12634;50.852;5.676;2023-12-28T11:51:15;12.40;99.90
24468;DHT22;12634;50.852;5.676;2023-12-28T11:53:43;12.40;99.90
24468;DHT22;12634;50.852;5.676;2023-12-28T11:56:15;12.30;99.90
24468;DHT22;12634;50.852;5.676;2023-12-28T11:58:43;12.30;99.90
24468;DHT22;12634;50.852;5.676;2023-12-28T12:01:14;12.50;99.90
24468;DHT22;12634;50.852;5.676;2023-12-28T12:03:41;12.40;99.90
24468;DHT22;12634;50.852;5.676;2023-12-28T12:06:08;12.30;99.90
24468;DHT22;12634;50.852;5.676;2023-12-28T12:08:36;12.30;99.90
24468;DHT22;12634;50.852;5.676;2023-12-28T12:11:05;12.50;99.90
24468;DHT22;12634;50.852;5.676;2023-12-28T12:13:32;12.60;99.90
24468;DHT22;12634;50.852;5.676;2023-12-28T12:16:00;12.60;99.90
24468;DHT22;12634;50.852;5.676;2023-12-28T12:18:32;12.50;99.90
24468;DHT22;12634;50.852;5.676;2023-12-28T12:21:00;12.30;99.90
24468;DHT22;12634;50.852;5.676;2023-12-28T12:23:28;12.40;99.90
24468;DHT22;12634;50.852;5.676;2023-12-28T12:25:55;12.40;99.90
24468;DHT22;12634;50.852;5.676;2023-12-28T12:28:22;12.40;99.90
24468;DHT22;12634;50.852;5.676;2023-12-28T12:30:51;12.30;99.90
24468;DHT22;12634;50.852;5.676;2023-12-28T12:33:20;12.30;99.90
24468;DHT22;12634;50.852;5.676;2023-12-28T12:35:49;12.20;99.90
24468;DHT22;12634;50.852;5.676;2023-12-28T12:38:17;12.20;99.90
24468;DHT22;12634;50.852;5.676;2023-12-28T12:40:44;12.30;99.90
24468;DHT22;12634;50.852;5.676;2023-12-28T12:43:11;12.20;99.90
24468;DHT22;12634;50.852;5.676;2023-12-28T12:45:39;12.20;99.90
24468;DHT22;12634;50.852;5.676;2023-12-28T12:48:07;12.20;99.90
24468;DHT22;12634;50.852;5.676;2023-12-28T12:50:34;12.20;99.90
24468;DHT22;12634;50.852;5.676;2023-12-28T12:53:05;12.20;99.90
24468;DHT22;12634;50.852;5.676;2023-12-28T12:55:32;12.20;99.90
24468;DHT22;12634;50.852;5.676;2023-12-28T12:57:59;12.20;99.90
24468;DHT22;12634;50.852;5.676;2023-12-28T13:00:27;12.20;99.90
24468;DHT22;12634;50.852;5.676;2023-12-28T13:02:55;12.30;99.90
24468;DHT22;12634;50.852;5.676;2023-12-28T13:05:25;12.20;99.90
24468;DHT22;12634;50.852;5.676;2023-12-28T13:07:53;12.20;99.90
24468;DHT22;12634;50.852;5.676;2023-12-28T13:10:21;12.10;99.90
24468;DHT22;12634;50.852;5.676;2023-12-28T13:12:48;12.00;99.90
24468;DHT22;12634;50.852;5.676;2023-12-28T13:15:16;12.00;99.90
24468;DHT22;12634;50.852;5.676;2023-12-28T13:17:43;12.10;99.90
24468;DHT22;12634;50.852;5.676;2023-12-28T13:20:11;12.10;99.90
24468;DHT22;12634;50.852;5.676;2023-12-28T13:22:38;12.10;99.90
24468;DHT22;12634;50.852;5.676;2023-12-28T13:25:06;12.10;99.90
24468;DHT22;12634;50.852;5.676;2023-12-28T13:27:34;12.20;99.90
24468;DHT22;12634;50.852;5.676;2023-12-28T13:30:01;12.10;99.90
24468;DHT22;12634;50.852;5.676;2023-12-28T13:32:29;12.00;99.90
24468;DHT22;12634;50.852;5.676;2023-12-28T13:34:56;12.00;99.90
24468;DHT22;12634;50.852;5.676;2023-12-28T13:37:23;12.00;99.90
24468;DHT22;12634;50.852;5.676;2023-12-28T13:39:53;11.90;99.90
24468;DHT22;12634;50.852;5.676;2023-12-28T13:42:20;11.90;99.90
24468;DHT22;12634;50.852;5.676;2023-12-28T13:44:48;11.90;99.90
24468;DHT22;12634;50.852;5.676;2023-12-28T13:47:17;11.90;99.90
24468;DHT22;12634;50.852;5.676;2023-12-28T13:49:44;11.90;99.90
24468;DHT22;12634;50.852;5.676;2023-12-28T13:52:11;11.80;99.90
24468;DHT22;12634;50.852;5.676;2023-12-28T13:54:38;11.80;99.90
24468;DHT22;12634;50.852;5.676;2023-12-28T13:57:06;11.80;99.90
24468;DHT22;12634;50.852;5.676;2023-12-28T13:59:34;11.80;99.90
24468;DHT22;12634;50.852;5.676;2023-12-28T14:02:02;11.80;99.90
24468;DHT22;12634;50.852;5.676;2023-12-28T14:04:30;11.80;99.90
24468;DHT22;12634;50.852;5.676;2023-12-28T14:06:57;11.80;99.90
24468;DHT22;12634;50.852;5.676;2023-12-28T14:09:24;11.70;99.90
24468;DHT22;12634;50.852;5.676;2023-12-28T14:11:51;11.70;99.90
24468;DHT22;12634;50.852;5.676;2023-12-28T14:14:18;11.70;99.90
24468;DHT22;12634;50.852;5.676;2023-12-28T14:16:46;11.60;99.90
24468;DHT22;12634;50.852;5.676;2023-12-28T14:19:15;11.60;99.90
24468;DHT22;12634;50.852;5.676;2023-12-28T14:21:42;11.60;99.90
24468;DHT22;12634;50.852;5.676;2023-12-28T14:24:10;11.60;99.90
24468;DHT22;12634;50.852;5.676;2023-12-28T14:26:41;11.50;99.90
24468;DHT22;12634;50.852;5.676;2023-12-28T14:29:09;11.50;99.90
24468;DHT22;12634;50.852;5.676;2023-12-28T14:31:37;11.50;99.90
24468;DHT22;12634;50.852;5.676;2023-12-28T14:34:05;11.50;99.90
24468;DHT22;12634;50.852;5.676;2023-12-28T14:36:35;11.50;99.90
24468;DHT22;12634;50.852;5.676;2023-12-28T14:39:04;11.40;99.90
24468;DHT22;12634;50.852;5.676;2023-12-28T14:41:31;11.40;99.90
24468;DHT22;12634;50.852;5.676;2023-12-28T14:43:58;11.30;99.90
24468;DHT22;12634;50.852;5.676;2023-12-28T14:46:26;11.30;99.90
24468;DHT22;12634;50.852;5.676;2023-12-28T14:48:53;11.30;99.90
24468;DHT22;12634;50.852;5.676;2023-12-28T14:51:20;11.30;99.90
24468;DHT22;12634;50.852;5.676;2023-12-28T14:53:49;11.20;99.90
24468;DHT22;12634;50.852;5.676;2023-12-28T14:56:17;11.10;99.90
24468;DHT22;12634;50.852;5.676;2023-12-28T14:58:44;11.10;99.90
24468;DHT22;12634;50.852;5.676;2023-12-28T15:01:13;11.10;99.90
24468;DHT22;12634;50.852;5.676;2023-12-28T15:03:41;11.10;99.90
24468;DHT22;12634;50.852;5.676;2023-12-28T15:06:08;11.10;99.90
24468;DHT22;12634;50.852;5.676;2023-12-28T15:08:35;11.10;99.90
24468;DHT22;12634;50.852;5.676;2023-12-28T15:11:05;11.20;99.90
24468;DHT22;12634;50.852;5.676;2023-12-28T15:13:36;11.10;99.90
24468;DHT22;12634;50.852;5.676;2023-12-28T15:16:04;11.10;99.90
24468;DHT22;12634;50.852;5.676;2023-12-28T15:18:32;11.00;99.90
24468;DHT22;12634;50.852;5.676;2023-12-28T15:20:59;11.00;99.90
24468;DHT22;12634;50.852;5.676;2023-12-28T15:23:27;11.00;99.90
24468;DHT22;12634;50.852;5.676;2023-12-28T15:25:55;11.00;99.90
24468;DHT22;12634;50.852;5.676;2023-12-28T15:28:23;10.90;99.90
24468;DHT22;12634;50.852;5.676;2023-12-28T15:30:51;11.00;99.90
24468;DHT22;12634;50.852;5.676;2023-12-28T15:33:18;11.10;99.90
24468;DHT22;12634;50.852;5.676;2023-12-28T15:35:45;11.00;99.90
24468;DHT22;12634;50.852;5.676;2023-12-28T15:38:12;11.00;99.90